Time;durP1;ratioP1;P1;durP2;ratioP2;P2;SDS_P1;SDS_P2;PMS_P1;PMS_P2;Temp;Humidity;BMP_temperature;BMP_pressure;BME280_temperature;BME280_humidity;BME280_pressure;Samples;Min_cycle;Max_cycle;Signal;HPM_P1;HPM_P2
2023/12/07 00:01:17;;;;;;;;;53.50;44.50;;;;;3.48;56.01;99285.78;5072191;28;8862;-78
2023/12/07 00:03:46;;;;;;;;;50.00;43.00;;;;;3.28;55.92;99288.25;5088882;28;8853;-78
2023/12/07 00:06:15;;;;;;;;;45.00;41.50;;;;;3.35;56.40;99290.88;5072202;28;8856;-78
2023/12/07 00:08:45;;;;;;;;;41.75;39.50;;;;;3.35;56.51;99284.81;5088687;28;8841;-77
2023/12/07 00:11:14;;;;;;;;;48.25;41.25;;;;;3.50;55.74;99294.44;5088584;28;9663;-77
2023/12/07 00:13:43;;;;;;;;;52.25;44.75;;;;;3.53;55.95;99290.13;5088666;28;8829;-77
2023/12/07 00:16:12;;;;;;;;;58.00;46.00;;;;;3.55;55.31;99288.41;5071530;28;9037;-79
2023/12/07 00:18:41;;;;;;;;;52.25;44.50;;;;;3.66;55.11;99291.03;5072430;28;8862;-76
2023/12/07 00:21:10;;;;;;;;;47.50;42.00;;;;;3.66;55.24;99293.66;5058564;28;8848;-77
2023/12/07 00:23:39;;;;;;;;;49.50;43.75;;;;;3.65;54.78;99294.50;5108794;28;8831;-78
2023/12/07 00:26:09;;;;;;;;;53.75;45.75;;;;;3.73;54.78;99294.50;5070996;28;8873;-78
2023/12/07 00:28:38;;;;;;;;;49.25;42.50;;;;;3.73;54.45;99305.81;5041643;28;8861;-77
2023/12/07 00:31:08;;;;;;;;;59.25;46.50;;;;;3.62;54.69;99304.91;5040211;28;8862;-77
2023/12/07 00:33:37;;;;;;;;;52.00;43.25;;;;;3.57;55.05;99312.66;5101620;27;8928;-75
2023/12/07 00:36:07;;;;;;;;;53.50;45.25;;;;;3.63;54.88;99309.22;5129217;27;8905;-77
2023/12/07 00:38:36;;;;;;;;;52.50;43.50;;;;;3.63;55.12;99308.34;5128719;27;9649;-76
2023/12/07 00:41:05;;;;;;;;;53.75;45.25;;;;;3.56;55.32;99316.13;5128758;27;8833;-76
2023/12/07 00:43:36;;;;;;;;;49.00;44.75;;;;;3.18;55.79;99313.31;5111645;27;8911;-75
2023/12/07 00:46:07;;;;;;;;;55.75;43.50;;;;;3.19;56.32;99315.94;5078108;27;8938;-75
2023/12/07 00:48:37;;;;;;;;;47.25;42.50;;;;;2.96;56.61;99322.72;5111726;27;8841;-76
2023/12/07 00:51:06;;;;;;;;;50.25;43.75;;;;;2.50;58.16;99330.16;5128573;27;8861;-77
2023/12/07 00:53:35;;;;;;;;;56.50;44.00;;;;;2.79;57.06;99323.47;5111521;27;8863;-76
2023/12/07 00:56:05;;;;;;;;;41.25;37.50;;;;;2.74;58.03;99322.56;5111779;27;8846;-76
2023/12/07 00:58:34;;;;;;;;;54.00;45.25;;;;;2.95;57.41;99320.97;5131748;27;8883;-78
2023/12/07 01:01:04;;;;;;;;;53.75;46.00;;;;;3.06;57.61;99326.25;5077827;27;8925;-78
2023/12/07 01:03:33;;;;;;;;;54.00;45.25;;;;;2.79;57.53;99318.28;5094479;27;8946;-76
2023/12/07 01:06:03;;;;;;;;;47.00;42.50;;;;;2.94;57.43;99314.94;5068050;28;8847;-77
2023/12/07 01:08:32;;;;;;;;;51.00;44.25;;;;;3.02;56.98;99316.72;5091018;28;8844;-76
2023/12/07 01:11:00;;;;;;;;;57.50;46.00;;;;;2.94;57.38;99314.94;5090740;28;8875;-77
2023/12/07 01:13:30;;;;;;;;;60.00;48.50;;;;;3.09;57.02;99310.66;5076320;28;8847;-77
2023/12/07 01:15:59;;;;;;;;;51.50;44.50;;;;;2.78;58.11;99310.47;5111102;28;8890;-77
2023/12/07 01:18:29;;;;;;;;;41.75;40.00;;;;;2.87;57.63;99302.75;5090658;28;8950;-76
2023/12/07 01:20:58;;;;;;;;;59.00;46.50;;;;;2.98;57.42;99300.25;5107441;28;8856;-76
2023/12/07 01:23:27;;;;;;;;;40.25;39.75;;;;;3.08;57.83;99301.16;5090394;28;8847;-77
2023/12/07 01:25:56;;;;;;;;;59.50;47.50;;;;;3.19;56.64;99300.34;5107471;28;8878;-78
2023/12/07 01:28:25;;;;;;;;;57.25;47.50;;;;;2.91;57.82;99294.13;5107420;28;8839;-77
2023/12/07 01:30:53;;;;;;;;;45.25;42.00;;;;;2.90;57.51;99288.91;5095745;28;8859;-79
2023/12/07 01:33:22;;;;;;;;;42.50;36.25;;;;;2.76;57.70;99291.44;5112438;28;8820;-77
2023/12/07 01:35:53;;;;;;;;;56.00;43.75;;;;;2.81;58.10;99293.19;5047849;28;8841;-78
2023/12/07 01:38:22;;;;;;;;;56.25;47.25;;;;;2.99;57.60;99292.44;5047118;28;8957;-78
2023/12/07 01:40:50;;;;;;;;;49.00;43.75;;;;;3.13;57.80;99292.53;5046599;28;9655;-78
2023/12/07 01:43:21;;;;;;;;;59.25;46.50;;;;;3.23;57.19;99288.25;5059515;28;8838;-77
2023/12/07 01:45:54;;;;;;;;;52.00;43.50;;;;;2.49;59.16;99300.75;5086790;28;8980;-77
2023/12/07 01:48:27;;;;;;;;;48.00;40.75;;;;;2.72;58.36;99298.31;5053293;28;9018;-76
2023/12/07 01:50:59;;;;;;;;;54.75;43.50;;;;;2.65;58.74;99293.09;5069561;28;8850;-76
2023/12/07 01:53:29;;;;;;;;;47.25;41.00;;;;;2.81;57.94;99305.31;5086546;28;8854;-77
2023/12/07 01:55:59;;;;;;;;;44.50;40.50;;;;;2.72;58.61;99303.53;5036433;28;8846;-78
2023/12/07 01:58:28;;;;;;;;;53.75;43.75;;;;;2.93;57.32;99302.78;5036761;28;8845;-76
2023/12/07 02:00:57;;;;;;;;;40.50;37.50;;;;;2.31;58.92;99308.38;5086292;28;8991;-77
2023/12/07 02:03:29;;;;;;;;;48.00;41.75;;;;;2.50;59.06;99306.81;5086748;28;9058;-77
2023/12/07 02:06:01;;;;;;;;;44.50;40.00;;;;;2.60;59.08;99303.44;5089329;27;9543;-77
2023/12/07 02:08:30;;;;;;;;;49.75;40.75;;;;;2.77;58.47;99299.25;5150389;27;8847;-77
2023/12/07 02:10:58;;;;;;;;;47.75;42.50;;;;;2.74;57.76;99307.00;5150537;27;8876;-77
2023/12/07 02:13:28;;;;;;;;;52.00;44.50;;;;;2.92;57.54;99305.38;5132111;27;8932;-78
2023/12/07 02:15:59;;;;;;;;;49.75;42.75;;;;;3.09;57.51;99311.56;5131563;27;8865;-77
2023/12/07 02:18:34;;;;;;;;;43.75;40.50;;;;;3.20;57.08;99303.78;5150119;27;8975;-78
2023/12/07 02:21:14;;;;;;;;;48.00;42.25;;;;;3.20;57.10;99296.91;5079629;27;8860;-78
2023/12/07 02:23:45;;;;;;;;;50.50;43.75;;;;;3.04;57.49;99304.59;5150403;27;8867;-77
2023/12/07 02:26:22;;;;;;;;;51.25;45.00;;;;;3.20;56.89;99299.50;5149797;27;8829;-77
2023/12/07 02:28:53;;;;;;;;;46.50;42.50;;;;;3.13;56.90;99292.53;5098610;27;8849;-78
2023/12/07 02:31:21;;;;;;;;;45.50;40.50;;;;;3.27;56.53;99299.53;5082982;27;8833;-77
2023/12/07 02:33:51;;;;;;;;;49.25;43.50;;;;;3.38;56.28;99300.44;5134051;27;8837;-78
2023/12/07 02:36:23;;;;;;;;;54.00;44.50;;;;;3.42;56.20;99307.41;5150594;27;8968;-77
2023/12/07 02:38:56;;;;;;;;;54.25;46.75;;;;;3.23;57.55;99300.38;5131934;27;8845;-78
2023/12/07 02:41:27;;;;;;;;;50.75;43.00;;;;;3.10;58.04;99300.28;5131289;27;9007;-77
2023/12/07 02:43:58;;;;;;;;;54.25;45.25;;;;;3.15;57.94;99303.78;5106071;28;8824;-77
2023/12/07 02:46:27;;;;;;;;;46.75;42.50;;;;;3.25;57.17;99301.25;5106269;28;8832;-77
2023/12/07 02:48:58;;;;;;;;;53.50;43.50;;;;;3.25;57.21;99303.84;5089171;28;8959;-79
2023/12/07 02:51:27;;;;;;;;;50.25;44.00;;;;;3.39;57.01;99296.97;5105676;28;8867;-77
2023/12/07 02:53:56;;;;;;;;;53.75;45.50;;;;;3.45;57.23;99297.03;5106176;28;8982;-77
2023/12/07 02:56:24;;;;;;;;;54.75;45.00;;;;;3.29;57.46;99306.44;5106339;28;8852;-78
2023/12/07 02:58:53;;;;;;;;;58.50;46.00;;;;;3.16;57.66;99308.09;5091339;28;8835;-77
2023/12/07 03:01:23;;;;;;;;;58.50;46.50;;;;;3.07;57.82;99305.47;5092690;28;8894;-76
2023/12/07 03:03:52;;;;;;;;;50.50;43.00;;;;;3.24;57.38;99308.19;5107120;28;8950;-78
2023/12/07 03:06:21;;;;;;;;;51.25;44.00;;;;;3.38;57.26;99303.03;5089248;28;9628;-77
2023/12/07 03:08:50;;;;;;;;;45.50;40.50;;;;;3.47;56.57;99305.72;5055851;28;9594;-79
2023/12/07 03:11:19;;;;;;;;;53.00;46.00;;;;;3.34;57.24;99309.09;5106126;28;8971;-78
2023/12/07 03:13:48;;;;;;;;;56.75;46.25;;;;;3.23;57.64;99310.75;5075382;28;8873;-77
2023/12/07 03:16:17;;;;;;;;;47.50;42.25;;;;;3.06;58.01;99314.13;5105008;27;8960;-77
2023/12/07 03:18:48;;;;;;;;;56.00;45.75;;;;;3.09;57.49;99316.75;5131909;27;8863;-77
2023/12/07 03:21:16;;;;;;;;;45.75;41.50;;;;;3.15;57.76;99314.19;5149938;27;8871;-78
2023/12/07 03:23:45;;;;;;;;;54.50;46.25;;;;;2.95;58.36;99319.25;5114595;27;8868;-78
2023/12/07 03:26:14;;;;;;;;;52.00;44.25;;;;;2.98;58.13;99327.06;5149945;27;8864;-78
2023/12/07 03:28:43;;;;;;;;;61.25;46.00;;;;;2.90;58.07;99320.97;5134446;27;8967;-78
2023/12/07 03:31:12;;;;;;;;;50.50;44.50;;;;;3.07;57.93;99320.19;5131524;27;8850;-77
2023/12/07 03:33:42;;;;;;;;;54.25;46.75;;;;;3.01;58.18;99331.41;5142601;27;8832;-77
2023/12/07 03:36:13;;;;;;;;;45.00;39.50;;;;;2.97;58.10;99320.13;5133050;27;8839;-79
2023/12/07 03:38:42;;;;;;;;;51.25;46.00;;;;;3.16;57.88;99328.03;5123536;27;9580;-78
2023/12/07 03:41:11;;;;;;;;;56.00;46.50;;;;;3.34;57.45;99329.88;5134634;27;8832;-77
2023/12/07 03:43:40;;;;;;;;;59.00;45.00;;;;;3.51;57.57;99333.44;5153794;27;8819;-77
2023/12/07 03:46:09;;;;;;;;;51.50;43.75;;;;;2.94;58.53;99337.41;5153846;27;8878;-78
2023/12/07 03:48:38;;;;;;;;;56.00;43.75;;;;;3.36;58.14;99335.94;5153663;27;8831;-78
2023/12/07 03:51:07;;;;;;;;;52.00;42.50;;;;;3.51;57.49;99336.03;5134749;27;8853;-78
2023/12/07 03:53:37;;;;;;;;;44.25;40.75;;;;;3.64;57.14;99341.25;5152952;27;8821;-76
2023/12/07 03:56:07;;;;;;;;;54.00;45.00;;;;;3.18;57.75;99336.69;5152771;27;8833;-77
2023/12/07 03:58:36;;;;;;;;;44.25;40.75;;;;;3.37;58.22;99338.56;5152667;27;8845;-77
2023/12/07 04:01:05;;;;;;;;;52.50;43.25;;;;;3.43;57.76;99339.44;5134157;27;8859;-78
2023/12/07 04:03:34;;;;;;;;;60.25;48.50;;;;;3.56;57.63;99334.34;5156974;27;8821;-78
2023/12/07 04:06:04;;;;;;;;;54.00;46.25;;;;;3.48;57.30;99335.16;5142099;27;8861;-80
2023/12/07 04:08:33;;;;;;;;;57.25;45.50;;;;;3.57;57.71;99336.06;5117198;27;8908;-77
2023/12/07 04:11:03;;;;;;;;;58.00;45.75;;;;;3.38;57.87;99344.59;5133889;27;8849;-77
2023/12/07 04:13:32;;;;;;;;;57.50;46.25;;;;;3.25;57.37;99337.59;5115851;27;8936;-78
2023/12/07 04:16:03;;;;;;;;;52.00;44.00;;;;;3.42;57.71;99345.53;5098767;27;8829;-79
2023/12/07 04:18:32;;;;;;;;;57.50;43.75;;;;;3.20;58.41;99342.75;5152812;27;8833;-77
2023/12/07 04:21:00;;;;;;;;;57.50;45.75;;;;;2.84;59.35;99346.00;5116635;27;8875;-77
2023/12/07 04:23:29;;;;;;;;;56.25;44.75;;;;;2.87;59.02;99346.03;5116921;27;9755;-76
2023/12/07 04:25:58;;;;;;;;;52.50;43.75;;;;;3.15;58.32;99345.34;5152452;27;8849;-77
2023/12/07 04:28:29;;;;;;;;;47.50;40.50;;;;;2.63;60.12;99357.94;5099248;27;8869;-78
2023/12/07 04:30:58;;;;;;;;;57.50;47.00;;;;;2.74;60.30;99350.25;5133693;27;8848;-78
2023/12/07 04:33:27;;;;;;;;;63.00;51.75;;;;;2.72;59.68;99354.56;5113222;28;8943;-77
2023/12/07 04:35:56;;;;;;;;;74.25;58.00;;;;;3.04;59.12;99348.75;5094856;28;8886;-77
2023/12/07 04:38:25;;;;;;;;;65.25;51.00;;;;;3.23;58.54;99357.50;5067565;28;8872;-79
2023/12/07 04:40:53;;;;;;;;;55.25;44.50;;;;;3.09;58.79;99360.00;5067803;28;8924;-79
2023/12/07 04:43:22;;;;;;;;;58.75;48.50;;;;;3.35;57.99;99360.16;5067721;28;8992;-78
2023/12/07 04:45:53;;;;;;;;;56.25;47.25;;;;;3.47;57.93;99352.47;5070455;28;8853;-77
2023/12/07 04:48:22;;;;;;;;;57.75;45.25;;;;;3.62;57.42;99356.88;5070604;28;8871;-77
2023/12/07 04:50:50;;;;;;;;;59.00;45.75;;;;;3.72;56.98;99365.59;5068009;28;9617;-78
2023/12/07 04:53:19;;;;;;;;;64.50;53.75;;;;;3.83;57.18;99363.00;5067540;28;9023;-78
2023/12/07 04:55:50;;;;;;;;;70.75;55.50;;;;;3.86;57.32;99366.47;5067362;28;8860;-78
2023/12/07 04:58:19;;;;;;;;;59.50;47.25;;;;;3.85;56.34;99366.50;5067321;28;8968;-77
2023/12/07 05:00:48;;;;;;;;;59.25;47.75;;;;;3.76;56.68;99367.31;5018195;28;8834;-76
2023/12/07 05:03:18;;;;;;;;;56.25;46.75;;;;;3.89;56.44;99369.09;5017695;28;8841;-76
2023/12/07 05:05:48;;;;;;;;;56.75;45.00;;;;;3.79;56.52;99372.56;5067309;28;8837;-78
2023/12/07 05:08:17;;;;;;;;;55.00;46.00;;;;;3.77;56.92;99374.25;5067233;28;9560;-76
2023/12/07 05:10:46;;;;;;;;;60.25;47.75;;;;;3.91;56.14;99382.97;5120349;27;8851;-77
2023/12/07 05:13:15;;;;;;;;;79.25;62.25;;;;;3.74;56.59;99382.91;5149813;27;8815;-79
2023/12/07 05:15:46;;;;;;;;;66.00;54.75;;;;;3.90;55.91;99381.25;5132506;27;8835;-77
2023/12/07 05:18:15;;;;;;;;;64.75;50.75;;;;;3.96;55.65;99385.63;5151319;27;8837;-77
2023/12/07 05:20:46;;;;;;;;;67.25;54.75;;;;;3.97;55.62;99389.94;5119000;27;8861;-77
2023/12/07 05:23:14;;;;;;;;;60.75;47.50;;;;;3.76;55.98;99393.31;5134335;27;8859;-77
2023/12/07 05:25:43;;;;;;;;;55.25;45.50;;;;;3.54;57.55;99394.94;5130474;27;8865;-77
2023/12/07 05:28:12;;;;;;;;;54.25;42.75;;;;;3.46;57.34;99391.44;5130583;27;8911;-77
2023/12/07 05:30:41;;;;;;;;;50.25;44.50;;;;;2.09;61.89;99404.13;5131121;27;9660;-79
2023/12/07 05:33:13;;;;;;;;;52.25;46.00;;;;;2.63;60.62;99403.78;5131233;27;8934;-78
2023/12/07 05:35:42;;;;;;;;;57.00;47.00;;;;;2.29;62.18;99403.47;5130800;27;8838;-79
2023/12/07 05:38:12;;;;;;;;;55.75;45.00;;;;;1.98;62.54;99416.09;5131834;27;8835;-78
2023/12/07 05:40:41;;;;;;;;;59.75;48.75;;;;;0.61;68.37;99422.72;5130615;27;8869;-78
2023/12/07 05:43:10;;;;;;;;;52.50;44.50;;;;;0.60;68.77;99425.28;5094656;27;8865;-77
2023/12/07 05:45:39;;;;;;;;;54.50;44.25;;;;;0.63;69.06;99428.78;5130586;27;8846;-78
2023/12/07 05:48:08;;;;;;;;;47.25;42.00;;;;;1.02;67.87;99425.13;5129409;27;8858;-78
2023/12/07 05:50:39;;;;;;;;;55.50;45.75;;;;;0.79;68.67;99434.22;5129470;27;8931;-78
2023/12/07 05:53:08;;;;;;;;;56.75;47.50;;;;;0.47;70.16;99431.94;5129973;27;8831;-77
2023/12/07 05:55:40;;;;;;;;;49.50;42.50;;;;;0.30;70.69;99443.69;5094327;27;8839;-77
2023/12/07 05:58:09;;;;;;;;;43.75;41.50;;;;;-0.08;72.32;99452.44;5129830;27;8859;-78
2023/12/07 06:00:39;;;;;;;;;48.00;41.00;;;;;-0.04;72.53;99443.91;5089553;28;8855;-79
2023/12/07 06:03:09;;;;;;;;;35.50;31.75;;;;;0.01;72.19;99457.78;5042880;28;8855;-78
2023/12/07 06:05:38;;;;;;;;;50.00;43.50;;;;;0.53;70.52;99451.88;5112494;28;8847;-80
2023/12/07 06:08:08;;;;;;;;;46.25;39.75;;;;;0.12;71.90;99451.94;5109046;28;9593;-80
2023/12/07 06:10:38;;;;;;;;;39.50;36.00;;;;;-0.06;72.44;99462.81;5106899;28;8884;-78
2023/12/07 06:13:09;;;;;;;;;44.25;42.00;;;;;0.12;72.05;99465.75;5090160;28;9069;-79
2023/12/07 06:15:37;;;;;;;;;38.40;34.60;;;;;0.29;71.05;99455.72;5073107;28;8848;-79
2023/12/07 06:18:06;;;;;;;;;40.50;32.75;;;;;0.74;69.46;99460.00;5106571;28;8852;-79
2023/12/07 06:20:35;;;;;;;;;34.75;31.75;;;;;1.04;68.34;99457.09;5089028;28;8994;-78
2023/12/07 06:23:06;;;;;;;;;27.00;25.40;;;;;0.49;69.34;99469.03;5106181;28;8844;-79
2023/12/07 06:25:35;;;;;;;;;36.50;30.25;;;;;0.53;69.88;99462.22;5106370;28;8858;-77
2023/12/07 06:28:04;;;;;;;;;37.25;36.00;;;;;0.20;71.34;99479.72;5039859;28;8974;-78
2023/12/07 06:30:35;;;;;;;;;36.40;33.40;;;;;-0.10;72.40;99479.94;5083922;28;8970;-78
2023/12/07 06:33:04;;;;;;;;;37.20;31.60;;;;;-0.17;72.11;99496.16;5075335;28;8886;-78
2023/12/07 06:35:33;;;;;;;;;34.00;27.00;;;;;-0.10;72.87;99482.53;5071001;28;8835;-79
2023/12/07 06:38:02;;;;;;;;;40.25;36.50;;;;;-0.17;72.75;99485.81;5070584;28;8962;-79
2023/12/07 06:40:31;;;;;;;;;33.75;32.50;;;;;0.17;72.18;99486.53;5083113;27;8858;-79
2023/12/07 06:43:00;;;;;;;;;29.50;26.50;;;;;-0.60;75.42;99490.03;5127875;27;8869;-79
2023/12/07 06:45:29;;;;;;;;;32.60;32.20;;;;;-0.16;73.59;99485.84;5123581;28;8957;-78
2023/12/07 06:47:59;;;;;;;;;40.00;37.00;;;;;-0.04;72.97;99494.72;5108099;28;8849;-77
2023/12/07 06:50:28;;;;;;;;;50.50;41.75;;;;;0.27;71.97;99498.78;5081729;28;9590;-78
2023/12/07 06:52:57;;;;;;;;;39.75;38.00;;;;;0.80;70.01;99488.59;5105899;27;9533;-78
2023/12/07 06:55:26;;;;;;;;;44.75;37.00;;;;;0.59;70.57;99490.78;5060800;28;8953;-78
2023/12/07 06:57:55;;;;;;;;;36.25;32.75;;;;;1.17;68.72;99486.66;5021356;28;8872;-77
2023/12/07 07:00:24;;;;;;;;;45.50;40.75;;;;;1.08;69.05;99483.91;5062351;28;10202;-79
2023/12/07 07:02:53;;;;;;;;;47.50;41.00;;;;;1.54;67.56;99484.63;5069082;28;8976;-78
2023/12/07 07:05:23;;;;;;;;;43.00;40.50;;;;;0.79;70.22;99489.44;5082961;28;8835;-78
2023/12/07 07:07:53;;;;;;;;;45.25;40.50;;;;;0.79;70.54;99488.56;5067336;28;9103;-77
2023/12/07 07:10:21;;;;;;;;;40.75;37.00;;;;;1.22;69.02;99495.38;5073077;28;8861;-77
2023/12/07 07:12:51;;;;;;;;;41.25;37.25;;;;;1.38;68.26;99495.59;5077703;28;8886;-80
2023/12/07 07:15:19;;;;;;;;;37.75;35.50;;;;;1.71;67.35;99491.75;5036229;28;9677;-79
2023/12/07 07:17:48;;;;;;;;;46.75;43.25;;;;;1.97;66.37;99505.94;5068682;28;8934;-78
2023/12/07 07:20:18;;;;;;;;;49.50;41.75;;;;;1.33;68.52;99505.00;5081823;28;8859;-76
2023/12/07 07:22:48;;;;;;;;;37.50;32.00;;;;;1.46;68.03;99509.53;5067108;28;8876;-78
2023/12/07 07:25:19;;;;;;;;;46.25;42.25;;;;;1.87;66.56;99511.88;5055410;28;8917;-76
2023/12/07 07:27:48;;;;;;;;;48.50;41.50;;;;;2.22;65.81;99516.63;5110481;28;8888;-78
2023/12/07 07:30:17;;;;;;;;;48.50;40.75;;;;;1.58;67.62;99514.91;5111597;28;8879;-77
2023/12/07 07:32:46;;;;;;;;;45.50;41.50;;;;;1.69;66.96;99517.69;5110793;28;8840;-78
2023/12/07 07:35:15;;;;;;;;;42.25;34.50;;;;;1.99;66.05;99521.53;5110696;28;8845;-79
2023/12/07 07:37:45;;;;;;;;;43.75;35.50;;;;;2.20;65.17;99518.34;5075873;28;8861;-78
2023/12/07 07:40:15;;;;;;;;;37.50;32.25;;;;;1.87;65.86;99517.06;5110705;28;8834;-78
2023/12/07 07:42:44;;;;;;;;;43.00;38.75;;;;;1.87;65.94;99513.59;5089454;28;8940;-81
2023/12/07 07:45:13;;;;;;;;;52.50;46.25;;;;;1.31;68.34;99511.88;5089353;28;8849;-75
2023/12/07 07:47:42;;;;;;;;;49.00;43.00;;;;;1.80;67.06;99513.50;5096461;28;8941;-75
2023/12/07 07:50:11;;;;;;;;;50.00;43.00;;;;;1.63;67.97;99514.97;5110252;28;8910;-78
2023/12/07 07:52:41;;;;;;;;;39.50;34.25;;;;;1.46;68.48;99517.31;5106263;28;8841;-77
2023/12/07 07:55:11;;;;;;;;;46.75;42.25;;;;;1.92;67.18;99517.09;5099811;28;8851;-77
2023/12/07 07:57:42;;;;;;;;;47.50;38.50;;;;;1.98;65.94;99519.78;5091448;28;8831;-77
2023/12/07 08:00:13;;;;;;;;;45.50;38.25;;;;;2.18;65.65;99522.63;5091981;28;8874;-78
2023/12/07 08:02:42;;;;;;;;;46.50;37.00;;;;;2.44;65.55;99516.91;5089860;28;8867;-75
2023/12/07 08:05:12;;;;;;;;;54.75;44.00;;;;;2.66;64.25;99520.63;5091963;28;8964;-78
2023/12/07 08:07:41;;;;;;;;;49.25;42.75;;;;;1.60;67.50;99526.16;5091394;28;8950;-78
2023/12/07 08:10:10;;;;;;;;;52.00;43.00;;;;;2.02;66.08;99525.03;5108519;28;8864;-74
2023/12/07 08:12:42;;;;;;;;;47.00;41.50;;;;;2.25;65.90;99532.25;5074958;28;8847;-78
2023/12/07 08:15:11;;;;;;;;;54.75;43.75;;;;;1.71;67.68;99531.53;5108406;28;8835;-78
2023/12/07 08:17:41;;;;;;;;;53.75;44.00;;;;;2.04;66.63;99530.25;5110667;28;8843;-77
2023/12/07 08:20:12;;;;;;;;;45.50;39.75;;;;;2.28;65.61;99532.28;5091427;28;8889;-77
2023/12/07 08:22:42;;;;;;;;;50.00;43.75;;;;;1.91;66.56;99530.94;5030648;28;8949;-77
2023/12/07 08:25:12;;;;;;;;;58.25;46.25;;;;;1.78;67.02;99546.28;5047280;28;8967;-77
2023/12/07 08:27:44;;;;;;;;;47.75;41.25;;;;;1.94;66.58;99538.75;5066083;28;8895;-77
2023/12/07 08:30:13;;;;;;;;;47.25;42.50;;;;;2.23;65.77;99541.72;5042125;28;8880;-76
2023/12/07 08:32:42;;;;;;;;;47.00;41.50;;;;;2.15;66.21;99539.03;5031436;28;8919;-77
2023/12/07 08:35:11;;;;;;;;;54.75;38.25;;;;;2.50;64.39;99541.19;5041360;28;8905;-77
2023/12/07 08:37:40;;;;;;;;;49.50;44.25;;;;;2.08;66.42;99547.56;5053632;28;8894;-77
2023/12/07 08:40:11;;;;;;;;;52.00;47.00;;;;;1.66;67.15;99550.44;5047563;28;8889;-76
2023/12/07 08:42:44;;;;;;;;;47.50;43.00;;;;;1.50;68.31;99557.94;5018507;28;8848;-76
2023/12/07 08:45:15;;;;;;;;;52.75;42.00;;;;;1.82;67.32;99555.88;5038611;28;8980;-78
2023/12/07 08:47:44;;;;;;;;;46.75;42.50;;;;;1.83;66.56;99551.56;5032407;28;8859;-78
2023/12/07 08:50:12;;;;;;;;;47.75;41.50;;;;;2.16;66.65;99558.03;5034970;28;8981;-77
2023/12/07 08:52:42;;;;;;;;;46.75;42.25;;;;;2.14;66.03;99564.94;5029739;28;8861;-77
2023/12/07 08:55:20;;;;;;;;;47.25;41.75;;;;;2.26;65.56;99559.94;5087501;28;8867;-78
2023/12/07 08:57:51;;;;;;;;;51.75;41.75;;;;;2.29;65.11;99559.94;5087585;28;8914;-77
2023/12/07 09:00:23;;;;;;;;;48.50;41.75;;;;;2.48;64.56;99568.84;5069987;28;8889;-76
2023/12/07 09:02:53;;;;;;;;;48.00;41.50;;;;;2.46;64.59;99569.69;5087045;28;8883;-78
2023/12/07 09:05:21;;;;;;;;;51.50;41.50;;;;;2.61;63.92;99564.66;5069333;28;9020;-78
2023/12/07 09:07:50;;;;;;;;;47.50;40.50;;;;;2.25;65.68;99568.56;5036540;28;8903;-78
2023/12/07 09:10:20;;;;;;;;;51.75;45.50;;;;;2.48;65.16;99563.66;5077125;28;8965;-78
2023/12/07 09:12:50;;;;;;;;;57.00;45.50;;;;;2.28;65.15;99554.75;5110401;28;9720;-79
2023/12/07 09:15:19;;;;;;;;;54.00;43.75;;;;;1.91;66.53;99555.13;5109098;28;8865;-77
2023/12/07 09:17:50;;;;;;;;;52.00;42.00;;;;;1.86;67.41;99555.91;5109892;28;8867;-77
2023/12/07 09:20:19;;;;;;;;;55.50;44.50;;;;;2.17;66.12;99552.03;5066082;28;8991;-77
2023/12/07 09:22:49;;;;;;;;;49.75;44.00;;;;;2.13;66.09;99555.44;5045501;28;8841;-79
2023/12/07 09:25:19;;;;;;;;;52.00;43.50;;;;;2.47;64.86;99550.69;5068538;28;8880;-77
2023/12/07 09:27:48;;;;;;;;;7.75;5.00;;;;;2.75;63.52;99546.66;5086414;28;8861;-78
2023/12/07 09:30:19;;;;;;;;;49.00;41.00;;;;;2.96;63.21;99546.88;5038667;28;8886;-77
2023/12/07 09:32:48;;;;;;;;;55.25;46.00;;;;;2.41;64.85;99549.75;5056005;28;9629;-80
2023/12/07 09:35:19;;;;;;;;;50.75;43.75;;;;;2.91;63.27;99545.09;5065941;28;8871;-78
2023/12/07 09:37:49;;;;;;;;;53.50;42.50;;;;;2.82;63.48;99540.66;5064206;28;9735;-78
2023/12/07 09:40:19;;;;;;;;;80.25;63.75;;;;;2.28;64.93;99550.44;5086195;28;8860;-78
2023/12/07 09:42:50;;;;;;;;;74.25;61.00;;;;;1.63;67.05;99546.06;5052515;28;8856;-77
2023/12/07 09:45:22;;;;;;;;;51.50;41.00;;;;;1.61;67.82;99546.03;5065159;28;10275;-77
2023/12/07 09:47:54;;;;;;;;;56.25;47.00;;;;;1.20;68.96;99538.50;5080297;28;9592;-76
2023/12/07 09:50:24;;;;;;;;;52.25;44.25;;;;;1.57;68.02;99538.19;5067465;28;9038;-78
2023/12/07 09:52:56;;;;;;;;;44.00;40.50;;;;;2.20;66.42;99528.72;5078427;28;8851;-77
2023/12/07 09:55:36;;;;;;;;;47.75;39.75;;;;;2.10;66.02;99537.22;5093270;28;8841;-77
2023/12/07 09:58:07;;;;;;;;;45.00;39.75;;;;;2.52;64.45;99523.91;5107130;28;9729;-76
2023/12/07 10:00:38;;;;;;;;;58.00;48.25;;;;;2.35;65.14;99528.03;5090432;28;8837;-77
2023/12/07 10:03:09;;;;;;;;;45.75;42.00;;;;;2.20;65.02;99526.13;5091522;28;8850;-78
2023/12/07 10:05:56;;;;;;;;;49.50;44.00;;;;;2.61;65.44;99521.41;5110405;28;8867;-76
2023/12/07 10:08:29;;;;;;;;;52.75;43.00;;;;;2.76;64.30;99523.31;5110225;28;8841;-77
2023/12/07 10:11:06;;;;;;;;;50.00;41.50;;;;;2.67;64.22;99514.56;5109021;28;8875;-77
2023/12/07 10:13:36;;;;;;;;;39.25;37.25;;;;;2.34;64.97;99527.16;5107808;28;8837;-77
2023/12/07 10:16:11;;;;;;;;;49.75;43.50;;;;;2.70;64.28;99520.66;5073241;28;8857;-77
2023/12/07 10:18:41;;;;;;;;;46.75;41.25;;;;;2.67;64.51;99507.63;5108884;28;8871;-77
2023/12/07 10:21:12;;;;;;;;;42.50;40.25;;;;;2.75;64.14;99508.59;5109211;28;8869;-76
2023/12/07 10:23:47;;;;;;;;;43.00;38.00;;;;;2.81;63.41;99497.41;5107837;28;8944;-77
2023/12/07 10:26:19;;;;;;;;;40.60;35.80;;;;;2.22;65.24;99508.84;5087132;28;8848;-77
2023/12/07 10:28:53;;;;;;;;;36.50;35.50;;;;;2.48;64.29;99503.09;5088709;28;8839;-77
2023/12/07 10:31:24;;;;;;;;;38.40;35.00;;;;;2.14;64.52;99511.34;5088167;28;8840;-77
2023/12/07 10:33:54;;;;;;;;;41.20;33.80;;;;;2.10;65.58;99512.16;5086915;28;8843;-78
2023/12/07 10:36:23;;;;;;;;;42.00;38.50;;;;;2.08;65.71;99505.22;5090091;28;8875;-76
2023/12/07 10:38:52;;;;;;;;;42.25;39.75;;;;;2.10;65.67;99495.75;5082601;28;8844;-77
2023/12/07 10:41:23;;;;;;;;;40.50;38.75;;;;;1.83;67.13;99500.59;5115527;27;8875;-78
2023/12/07 10:43:54;;;;;;;;;36.00;32.50;;;;;2.52;65.19;99494.50;5114349;28;8829;-76
2023/12/07 10:46:24;;;;;;;;;42.00;38.50;;;;;2.21;65.98;99502.81;5131173;27;9008;-78
2023/12/07 10:49:00;;;;;;;;;40.20;37.20;;;;;2.59;64.67;99496.31;5114193;28;8871;-78
2023/12/07 10:51:35;;;;;;;;;37.00;35.50;;;;;2.87;64.17;99500.06;5115555;28;8857;-78
2023/12/07 10:54:08;;;;;;;;;41.40;36.80;;;;;2.90;62.73;99489.72;5115201;27;8925;-79
2023/12/07 10:56:43;;;;;;;;;42.40;38.40;;;;;2.45;64.47;99497.88;5112329;28;8855;-77
2023/12/07 10:59:14;;;;;;;;;31.00;24.50;;;;;2.36;64.18;99496.06;5078683;28;8884;-77
2023/12/07 11:01:49;;;;;;;;;38.80;31.80;;;;;2.45;65.05;99497.88;5113808;28;8950;-78
2023/12/07 11:04:19;;;;;;;;;44.25;38.00;;;;;2.49;65.11;99504.88;5099749;28;8866;-77
2023/12/07 11:06:53;;;;;;;;;36.50;33.50;;;;;1.99;65.73;99504.28;5096829;28;8962;-78
2023/12/07 11:09:29;;;;;;;;;40.50;36.00;;;;;2.33;65.48;99499.47;5112862;28;8934;-77
2023/12/07 11:12:03;;;;;;;;;36.50;33.25;;;;;1.76;66.93;99505.66;5112828;28;8834;-78
2023/12/07 11:14:34;;;;;;;;;39.40;34.40;;;;;1.72;67.27;99502.16;5095744;28;8993;-78
2023/12/07 11:17:05;;;;;;;;;32.40;28.40;;;;;1.80;67.08;99504.84;5112980;28;8854;-78
2023/12/07 11:19:48;;;;;;;;;36.00;31.20;;;;;2.28;65.71;99506.34;5095673;28;8862;-77
2023/12/07 11:22:17;;;;;;;;;41.40;36.00;;;;;1.80;66.87;99507.44;5095035;28;8931;-76
2023/12/07 11:24:59;;;;;;;;;34.20;33.00;;;;;1.95;65.94;99509.38;5095199;28;8838;-77
2023/12/07 11:27:31;;;;;;;;;33.40;30.00;;;;;2.22;65.34;99514.03;5048948;28;8887;-76
2023/12/07 11:30:01;;;;;;;;;24.75;23.75;;;;;1.86;66.26;99511.84;5113971;28;8852;-77
2023/12/07 11:32:33;;;;;;;;;32.00;31.00;;;;;2.08;65.51;99518.19;5091694;28;8984;-78
2023/12/07 11:35:06;;;;;;;;;34.40;28.40;;;;;2.04;65.14;99512.09;5042567;28;8896;-77
2023/12/07 11:38:06;;;;;;;;;34.00;32.60;;;;;2.10;65.62;99513.91;5075977;28;8869;-76
2023/12/07 11:40:42;;;;;;;;;35.20;32.60;;;;;2.02;65.56;99512.06;5058947;28;8869;-77
2023/12/07 11:43:18;;;;;;;;;28.20;27.80;;;;;1.71;66.91;99515.97;5092216;28;8846;-77
2023/12/07 11:45:49;;;;;;;;;33.00;29.60;;;;;1.54;67.45;99510.53;5075373;28;9598;-76
2023/12/07 11:48:22;;;;;;;;;40.50;37.50;;;;;1.77;66.52;99504.81;5073969;28;10085;-77